Terminal Aerodrome Forecast
Issued by NWS

Home | Current Version | Previous Version | Text Only | Print | Product List | Glossary On
Versions: 1 2 3 4 5 6 7 8 9 10 11 12 13 14 15 16
000
FTUS44 KLZK 111242 AAA
TAFADF
TAF AMD
KADF 111242Z 1113/1212 17007KT P6SM VCSH OVC030 WS020/20040KT
     FM111500 17009G15KT P6SM -RA OVC025 WS020/20040KT
     FM120000 23005KT 5SM -RA BR OVC008=

USA.gov is the U.S. government's official web portal to all federal, state and local government web resources and services.